sensor_id;sensor_type;location;lat;lon;timestamp;pressure;altitude;pressure_sealevel;temperature;humidity
36834;BME280;48003;52.084;5.224;2024-03-22T00:00:04;102144.0;;;14.31;85.54
36834;BME280;48003;52.084;5.224;2024-03-22T00:01:40;102138.0;;;14.56;84.28
36834;BME280;48003;52.084;5.224;2024-03-22T00:04:52;102136.0;;;14.37;85.14
36834;BME280;48003;52.084;5.224;2024-03-22T00:06:28;102130.0;;;14.46;84.82
36834;BME280;48003;52.084;5.224;2024-03-22T00:08:05;102130.0;;;14.49;85.37
36834;BME280;48003;52.084;5.224;2024-03-22T00:11:18;102120.0;;;14.48;85.19
36834;BME280;48003;52.084;5.224;2024-03-22T00:12:54;102121.0;;;14.46;85.3
36834;BME280;48003;52.084;5.224;2024-03-22T00:14:30;102114.0;;;14.57;85.53
36834;BME280;48003;52.084;5.224;2024-03-22T00:17:43;102114.0;;;14.2;87.81
36834;BME280;48003;52.084;5.224;2024-03-22T00:19:19;102098.0;;;14.02;88.51
36834;BME280;48003;52.084;5.224;2024-03-22T00:20:55;102101.0;;;14.02;89.85
36834;BME280;48003;52.084;5.224;2024-03-22T00:24:08;102090.0;;;14.2;88.95
36834;BME280;48003;52.084;5.224;2024-03-22T00:25:44;102084.0;;;14.38;88.14
36834;BME280;48003;52.084;5.224;2024-03-22T00:27:19;102087.0;;;14.32;88.01
36834;BME280;48003;52.084;5.224;2024-03-22T00:28:55;102081.0;;;14.39;88.1
36834;BME280;48003;52.084;5.224;2024-03-22T00:32:07;102080.0;;;14.23;88.88
36834;BME280;48003;52.084;5.224;2024-03-22T00:33:43;102080.0;;;14.25;88.93
36834;BME280;48003;52.084;5.224;2024-03-22T00:35:20;102080.0;;;13.89;90.62
36834;BME280;48003;52.084;5.224;2024-03-22T00:38:32;102074.0;;;14.22;90.11
36834;BME280;48003;52.084;5.224;2024-03-22T00:40:09;102067.0;;;14.05;90.88
36834;BME280;48003;52.084;5.224;2024-03-22T00:41:45;102055.0;;;14.4;89.01
36834;BME280;48003;52.084;5.224;2024-03-22T00:44:58;102053.0;;;14.28;89.34
36834;BME280;48003;52.084;5.224;2024-03-22T00:46:34;102045.0;;;14.06;91.13
36834;BME280;48003;52.084;5.224;2024-03-22T00:48:10;102036.0;;;14.4;88.66
36834;BME280;48003;52.084;5.224;2024-03-22T00:49:46;102038.0;;;14.22;90.17
36834;BME280;48003;52.084;5.224;2024-03-22T00:52:59;102033.0;;;14.28;89.88
36834;BME280;48003;52.084;5.224;2024-03-22T00:54:35;102032.0;;;14.32;89.69
36834;BME280;48003;52.084;5.224;2024-03-22T00:56:11;102031.0;;;13.98;90.84
36834;BME280;48003;52.084;5.224;2024-03-22T00:59:23;102023.0;;;13.88;91.94
36834;BME280;48003;52.084;5.224;2024-03-22T01:00:59;102032.0;;;13.8;92.25
36834;BME280;48003;52.084;5.224;2024-03-22T01:02:35;102027.0;;;14.09;90.89
36834;BME280;48003;52.084;5.224;2024-03-22T01:05:48;102031.0;;;14.16;90.41
36834;BME280;48003;52.084;5.224;2024-03-22T01:07:24;102040.0;;;13.65;92.27
36834;BME280;48003;52.084;5.224;2024-03-22T01:09:00;102033.0;;;13.88;91.93
36834;BME280;48003;52.084;5.224;2024-03-22T01:12:12;102025.0;;;14.27;89.63
36834;BME280;48003;52.084;5.224;2024-03-22T01:13:48;102024.0;;;14.0;90.87
36834;BME280;48003;52.084;5.224;2024-03-22T01:15:24;102015.0;;;14.18;89.74
36834;BME280;48003;52.084;5.224;2024-03-22T01:17:00;102021.0;;;14.0;90.28
36834;BME280;48003;52.084;5.224;2024-03-22T01:20:12;102023.0;;;14.22;89.47
36834;BME280;48003;52.084;5.224;2024-03-22T01:21:49;102028.0;;;14.13;89.67
36834;BME280;48003;52.084;5.224;2024-03-22T01:23:24;102022.0;;;14.21;89.86
36834;BME280;48003;52.084;5.224;2024-03-22T01:26:38;102018.0;;;14.31;88.88
36834;BME280;48003;52.084;5.224;2024-03-22T01:28:14;102020.0;;;14.0;90.66
36834;BME280;48003;52.084;5.224;2024-03-22T01:29:50;102017.0;;;13.86;90.84
36834;BME280;48003;52.084;5.224;2024-03-22T01:33:03;102019.0;;;14.21;89.58
36834;BME280;48003;52.084;5.224;2024-03-22T01:34:39;102012.0;;;14.13;89.51
36834;BME280;48003;52.084;5.224;2024-03-22T01:36:16;102013.0;;;14.4;88.19
36834;BME280;48003;52.084;5.224;2024-03-22T01:39:28;102007.0;;;14.32;88.54
36834;BME280;48003;52.084;5.224;2024-03-22T01:41:04;102009.0;;;14.25;88.66
36834;BME280;48003;52.084;5.224;2024-03-22T01:42:40;102009.0;;;14.23;89.37
36834;BME280;48003;52.084;5.224;2024-03-22T01:44:17;102010.0;;;14.13;89.79
36834;BME280;48003;52.084;5.224;2024-03-22T01:47:30;102007.0;;;14.12;89.24
36834;BME280;48003;52.084;5.224;2024-03-22T01:49:07;101995.0;;;14.14;89.14
36834;BME280;48003;52.084;5.224;2024-03-22T01:50:46;102005.0;;;13.9;90.41
36834;BME280;48003;52.084;5.224;2024-03-22T01:54:01;101993.0;;;14.15;89.39
36834;BME280;48003;52.084;5.224;2024-03-22T01:55:37;101995.0;;;13.88;90.08
36834;BME280;48003;52.084;5.224;2024-03-22T01:57:13;101994.0;;;14.32;88.34
36834;BME280;48003;52.084;5.224;2024-03-22T01:58:50;101991.0;;;14.15;88.94
36834;BME280;48003;52.084;5.224;2024-03-22T02:02:02;101996.0;;;14.23;88.56
36834;BME280;48003;52.084;5.224;2024-03-22T02:03:38;101996.0;;;13.66;91.38
36834;BME280;48003;52.084;5.224;2024-03-22T02:05:15;102002.0;;;13.48;92.61
36834;BME280;48003;52.084;5.224;2024-03-22T02:08:27;101996.0;;;13.73;91.48
36834;BME280;48003;52.084;5.224;2024-03-22T02:10:04;101998.0;;;13.77;90.36
36834;BME280;48003;52.084;5.224;2024-03-22T02:11:41;101994.0;;;13.82;90.39
36834;BME280;48003;52.084;5.224;2024-03-22T02:14:57;101995.0;;;13.68;90.32
36834;BME280;48003;52.084;5.224;2024-03-22T02:16:33;101997.0;;;13.42;91.49
36834;BME280;48003;52.084;5.224;2024-03-22T02:18:09;101991.0;;;13.68;89.85
36834;BME280;48003;52.084;5.224;2024-03-22T02:19:45;102002.0;;;13.51;90.88
36834;BME280;48003;52.084;5.224;2024-03-22T02:22:57;101998.0;;;13.5;90.84
36834;BME280;48003;52.084;5.224;2024-03-22T02:24:33;101985.0;;;13.4;91.43
36834;BME280;48003;52.084;5.224;2024-03-22T02:26:09;101983.0;;;13.41;92.02
36834;BME280;48003;52.084;5.224;2024-03-22T02:29:22;101975.0;;;13.93;88.83
36834;BME280;48003;52.084;5.224;2024-03-22T02:30:58;101975.0;;;13.67;89.21
36834;BME280;48003;52.084;5.224;2024-03-22T02:32:35;101975.0;;;13.89;88.06
36834;BME280;48003;52.084;5.224;2024-03-22T02:35:47;101975.0;;;13.87;88.32
36834;BME280;48003;52.084;5.224;2024-03-22T02:37:24;101973.0;;;13.69;88.38
36834;BME280;48003;52.084;5.224;2024-03-22T02:39:00;101968.0;;;13.73;88.92
36834;BME280;48003;52.084;5.224;2024-03-22T02:42:12;101958.0;;;13.92;87.8
36834;BME280;48003;52.084;5.224;2024-03-22T02:43:48;101957.0;;;13.73;88.7
36834;BME280;48003;52.084;5.224;2024-03-22T02:45:25;101955.0;;;13.79;87.87
36834;BME280;48003;52.084;5.224;2024-03-22T02:47:01;101956.0;;;13.79;87.8
36834;BME280;48003;52.084;5.224;2024-03-22T02:50:13;101948.0;;;13.74;88.08
36834;BME280;48003;52.084;5.224;2024-03-22T02:51:49;101947.0;;;13.76;87.9
36834;BME280;48003;52.084;5.224;2024-03-22T02:53:25;101944.0;;;13.75;87.75
36834;BME280;48003;52.084;5.224;2024-03-22T02:56:37;101943.0;;;13.62;88.28
36834;BME280;48003;52.084;5.224;2024-03-22T02:58:13;101933.0;;;13.82;87.63
36834;BME280;48003;52.084;5.224;2024-03-22T02:59:49;101933.0;;;13.92;86.88
36834;BME280;48003;52.084;5.224;2024-03-22T03:03:02;101915.0;;;13.71;87.79
36834;BME280;48003;52.084;5.224;2024-03-22T03:04:39;101916.0;;;13.62;88.08
36834;BME280;48003;52.084;5.224;2024-03-22T03:06:15;101909.0;;;13.18;89.67
36834;BME280;48003;52.084;5.224;2024-03-22T03:07:51;101910.0;;;13.18;90.1
36834;BME280;48003;52.084;5.224;2024-03-22T03:11:03;101903.0;;;13.46;88.72
36834;BME280;48003;52.084;5.224;2024-03-22T03:12:39;101906.0;;;13.02;90.62
36834;BME280;48003;52.084;5.224;2024-03-22T03:14:15;101905.0;;;13.09;89.82
36834;BME280;48003;52.084;5.224;2024-03-22T03:17:28;101897.0;;;13.15;90.83
36834;BME280;48003;52.084;5.224;2024-03-22T03:19:04;101899.0;;;12.78;92.44
36834;BME280;48003;52.084;5.224;2024-03-22T03:20:40;101902.0;;;12.9;91.86
36834;BME280;48003;52.084;5.224;2024-03-22T03:23:52;101891.0;;;13.05;91.31
36834;BME280;48003;52.084;5.224;2024-03-22T03:25:28;101896.0;;;12.98;90.82
36834;BME280;48003;52.084;5.224;2024-03-22T03:27:04;101896.0;;;12.9;91.91
36834;BME280;48003;52.084;5.224;2024-03-22T03:30:16;101885.0;;;13.18;90.49
36834;BME280;48003;52.084;5.224;2024-03-22T03:31:53;101880.0;;;13.21;89.98
36834;BME280;48003;52.084;5.224;2024-03-22T03:33:29;101872.0;;;13.1;90.41
36834;BME280;48003;52.084;5.224;2024-03-22T03:35:06;101870.0;;;13.05;90.71
36834;BME280;48003;52.084;5.224;2024-03-22T03:38:18;101870.0;;;12.96;90.96
36834;BME280;48003;52.084;5.224;2024-03-22T03:39:54;101861.0;;;13.1;90.26
36834;BME280;48003;52.084;5.224;2024-03-22T03:41:30;101859.0;;;13.05;90.2
36834;BME280;48003;52.084;5.224;2024-03-22T03:44:42;101850.0;;;12.68;91.33
36834;BME280;48003;52.084;5.224;2024-03-22T03:46:18;101851.0;;;12.88;90.93
36834;BME280;48003;52.084;5.224;2024-03-22T03:47:55;101851.0;;;12.74;90.88
36834;BME280;48003;52.084;5.224;2024-03-22T03:51:07;101852.0;;;12.64;91.77
36834;BME280;48003;52.084;5.224;2024-03-22T03:52:43;101855.0;;;12.97;90.13
36834;BME280;48003;52.084;5.224;2024-03-22T03:54:19;101852.0;;;12.9;89.83
36834;BME280;48003;52.084;5.224;2024-03-22T03:57:31;101852.0;;;12.95;89.55
36834;BME280;48003;52.084;5.224;2024-03-22T03:59:07;101853.0;;;12.53;91.83
36834;BME280;48003;52.084;5.224;2024-03-22T04:00:43;101853.0;;;13.0;89.69
36834;BME280;48003;52.084;5.224;2024-03-22T04:02:19;101844.0;;;13.12;88.9
36834;BME280;48003;52.084;5.224;2024-03-22T04:05:32;101848.0;;;12.89;89.85
36834;BME280;48003;52.084;5.224;2024-03-22T04:07:08;101849.0;;;12.83;90.04
36834;BME280;48003;52.084;5.224;2024-03-22T04:08:45;101850.0;;;12.68;90.6
36834;BME280;48003;52.084;5.224;2024-03-22T04:11:57;101848.0;;;12.68;91.2
36834;BME280;48003;52.084;5.224;2024-03-22T04:13:33;101840.0;;;12.96;89.78
36834;BME280;48003;52.084;5.224;2024-03-22T04:15:09;101843.0;;;12.93;89.38
36834;BME280;48003;52.084;5.224;2024-03-22T04:18:21;101842.0;;;13.06;88.62
36834;BME280;48003;52.084;5.224;2024-03-22T04:19:58;101845.0;;;12.9;89.47
36834;BME280;48003;52.084;5.224;2024-03-22T04:21:34;101839.0;;;13.07;88.4
36834;BME280;48003;52.084;5.224;2024-03-22T04:23:10;101839.0;;;12.81;89.66
36834;BME280;48003;52.084;5.224;2024-03-22T04:26:23;101838.0;;;12.94;89.15
36834;BME280;48003;52.084;5.224;2024-03-22T04:27:59;101837.0;;;12.94;88.89
36834;BME280;48003;52.084;5.224;2024-03-22T04:29:35;101841.0;;;12.98;88.53
36834;BME280;48003;52.084;5.224;2024-03-22T04:32:48;101837.0;;;12.79;89.07
36834;BME280;48003;52.084;5.224;2024-03-22T04:34:24;101831.0;;;12.71;89.78
36834;BME280;48003;52.084;5.224;2024-03-22T04:36:01;101844.0;;;12.41;91.35
36834;BME280;48003;52.084;5.224;2024-03-22T04:39:14;101839.0;;;12.31;91.85
36834;BME280;48003;52.084;5.224;2024-03-22T04:40:50;101840.0;;;12.67;90.79
36834;BME280;48003;52.084;5.224;2024-03-22T04:42:26;101845.0;;;12.67;89.91
36834;BME280;48003;52.084;5.224;2024-03-22T04:45:38;101842.0;;;12.58;90.9
36834;BME280;48003;52.084;5.224;2024-03-22T04:47:14;101844.0;;;12.62;90.26
36834;BME280;48003;52.084;5.224;2024-03-22T04:48:50;101848.0;;;12.79;89.69
36834;BME280;48003;52.084;5.224;2024-03-22T04:50:27;101850.0;;;12.74;89.79
36834;BME280;48003;52.084;5.224;2024-03-22T04:53:39;101853.0;;;12.82;89.52
36834;BME280;48003;52.084;5.224;2024-03-22T04:55:15;101843.0;;;12.82;89.14
36834;BME280;48003;52.084;5.224;2024-03-22T04:56:51;101852.0;;;12.69;89.9
36834;BME280;48003;52.084;5.224;2024-03-22T05:00:04;101846.0;;;13.0;88.53
36834;BME280;48003;52.084;5.224;2024-03-22T05:01:40;101855.0;;;12.75;89.19
36834;BME280;48003;52.084;5.224;2024-03-22T05:03:16;101855.0;;;12.77;89.31
36834;BME280;48003;52.084;5.224;2024-03-22T05:06:28;101848.0;;;12.82;89.96
36834;BME280;48003;52.084;5.224;2024-03-22T05:08:05;101847.0;;;12.82;89.96
36834;BME280;48003;52.084;5.224;2024-03-22T05:09:42;101852.0;;;12.76;89.47
36834;BME280;48003;52.084;5.224;2024-03-22T05:11:18;101849.0;;;12.82;90.2
36834;BME280;48003;52.084;5.224;2024-03-22T05:14:30;101848.0;;;12.71;90.19
36834;BME280;48003;52.084;5.224;2024-03-22T05:16:06;101847.0;;;12.59;90.02
36834;BME280;48003;52.084;5.224;2024-03-22T05:17:43;101842.0;;;12.46;91.0
36834;BME280;48003;52.084;5.224;2024-03-22T05:20:55;101837.0;;;12.39;91.62
36834;BME280;48003;52.084;5.224;2024-03-22T05:22:31;101832.0;;;12.51;91.15
36834;BME280;48003;52.084;5.224;2024-03-22T05:24:08;101833.0;;;12.55;91.29
36834;BME280;48003;52.084;5.224;2024-03-22T05:27:20;101846.0;;;12.69;90.39
36834;BME280;48003;52.084;5.224;2024-03-22T05:28:56;101835.0;;;12.43;90.64
36834;BME280;48003;52.084;5.224;2024-03-22T05:30:32;101826.0;;;12.2;92.58
36834;BME280;48003;52.084;5.224;2024-03-22T05:33:44;101819.0;;;12.59;90.72
36834;BME280;48003;52.084;5.224;2024-03-22T05:35:20;101823.0;;;12.4;91.25
36834;BME280;48003;52.084;5.224;2024-03-22T05:36:56;101816.0;;;12.76;89.79
36834;BME280;48003;52.084;5.224;2024-03-22T05:38:32;101817.0;;;12.36;90.83
36834;BME280;48003;52.084;5.224;2024-03-22T05:41:46;101816.0;;;12.62;90.19
36834;BME280;48003;52.084;5.224;2024-03-22T05:43:22;101815.0;;;12.89;88.71
36834;BME280;48003;52.084;5.224;2024-03-22T05:44:58;101814.0;;;12.79;89.05
36834;BME280;48003;52.084;5.224;2024-03-22T05:48:10;101805.0;;;12.8;88.59
36834;BME280;48003;52.084;5.224;2024-03-22T05:49:46;101801.0;;;12.8;88.61
36834;BME280;48003;52.084;5.224;2024-03-22T05:51:22;101811.0;;;12.42;90.64
36834;BME280;48003;52.084;5.224;2024-03-22T05:54:34;101801.0;;;12.41;90.64
36834;BME280;48003;52.084;5.224;2024-03-22T05:56:11;101807.0;;;12.44;91.04
36834;BME280;48003;52.084;5.224;2024-03-22T05:57:47;101799.0;;;12.71;89.7
36834;BME280;48003;52.084;5.224;2024-03-22T05:59:23;101788.0;;;12.87;88.42
36834;BME280;48003;52.084;5.224;2024-03-22T06:02:35;101791.0;;;12.48;89.92
36834;BME280;48003;52.084;5.224;2024-03-22T06:04:11;101787.0;;;12.73;89.03
36834;BME280;48003;52.084;5.224;2024-03-22T06:05:47;101792.0;;;12.55;89.11
36834;BME280;48003;52.084;5.224;2024-03-22T06:08:59;101791.0;;;12.59;89.16
36834;BME280;48003;52.084;5.224;2024-03-22T06:10:35;101785.0;;;12.8;87.97
36834;BME280;48003;52.084;5.224;2024-03-22T06:12:12;101784.0;;;12.89;87.76
36834;BME280;48003;52.084;5.224;2024-03-22T06:17:03;101777.0;;;12.73;88.11
36834;BME280;48003;52.084;5.224;2024-03-22T06:18:39;101780.0;;;12.6;88.85
36834;BME280;48003;52.084;5.224;2024-03-22T06:21:51;101787.0;;;12.72;87.89
36834;BME280;48003;52.084;5.224;2024-03-22T06:23:27;101782.0;;;12.46;88.55
36834;BME280;48003;52.084;5.224;2024-03-22T06:25:04;101784.0;;;12.62;88.76
36834;BME280;48003;52.084;5.224;2024-03-22T06:26:40;101776.0;;;12.76;88.22
36834;BME280;48003;52.084;5.224;2024-03-22T06:29:53;101780.0;;;12.57;88.65
36834;BME280;48003;52.084;5.224;2024-03-22T06:31:29;101780.0;;;12.69;88.43
36834;BME280;48003;52.084;5.224;2024-03-22T06:33:05;101781.0;;;12.64;88.18
36834;BME280;48003;52.084;5.224;2024-03-22T06:36:17;101787.0;;;12.66;88.1
36834;BME280;48003;52.084;5.224;2024-03-22T06:37:53;101783.0;;;12.51;88.12
36834;BME280;48003;52.084;5.224;2024-03-22T06:39:29;101783.0;;;12.75;87.45
36834;BME280;48003;52.084;5.224;2024-03-22T06:42:43;101782.0;;;12.52;88.83
36834;BME280;48003;52.084;5.224;2024-03-22T06:44:19;101776.0;;;12.74;87.85
36834;BME280;48003;52.084;5.224;2024-03-22T06:45:55;101780.0;;;12.95;86.98
36834;BME280;48003;52.084;5.224;2024-03-22T06:47:31;101771.0;;;13.05;86.28
36834;BME280;48003;52.084;5.224;2024-03-22T06:50:43;101776.0;;;12.98;86.72
36834;BME280;48003;52.084;5.224;2024-03-22T06:52:19;101789.0;;;12.51;88.79
36834;BME280;48003;52.084;5.224;2024-03-22T06:53:55;101787.0;;;12.78;88.13
36834;BME280;48003;52.084;5.224;2024-03-22T06:57:07;101790.0;;;12.72;87.87
36834;BME280;48003;52.084;5.224;2024-03-22T06:58:44;101787.0;;;12.64;88.26
36834;BME280;48003;52.084;5.224;2024-03-22T07:00:21;101783.0;;;13.08;86.89
36834;BME280;48003;52.084;5.224;2024-03-22T07:03:33;101780.0;;;13.05;86.8
36834;BME280;48003;52.084;5.224;2024-03-22T07:05:10;101784.0;;;12.94;87.08
36834;BME280;48003;52.084;5.224;2024-03-22T07:06:47;101783.0;;;13.04;86.73
36834;BME280;48003;52.084;5.224;2024-03-22T07:09:59;101782.0;;;12.99;86.31
36834;BME280;48003;52.084;5.224;2024-03-22T07:11:35;101778.0;;;12.9;86.18
36834;BME280;48003;52.084;5.224;2024-03-22T07:13:11;101780.0;;;12.92;86.54
36834;BME280;48003;52.084;5.224;2024-03-22T07:14:47;101786.0;;;12.65;87.2
36834;BME280;48003;52.084;5.224;2024-03-22T07:18:00;101780.0;;;12.79;86.95
36834;BME280;48003;52.084;5.224;2024-03-22T07:19:36;101785.0;;;12.86;86.61
36834;BME280;48003;52.084;5.224;2024-03-22T07:21:12;101784.0;;;12.56;87.88
36834;BME280;48003;52.084;5.224;2024-03-22T07:24:24;101775.0;;;12.94;86.44
36834;BME280;48003;52.084;5.224;2024-03-22T07:26:00;101785.0;;;12.68;87.61
36834;BME280;48003;52.084;5.224;2024-03-22T07:27:36;101781.0;;;12.93;86.59
36834;BME280;48003;52.084;5.224;2024-03-22T07:30:49;101780.0;;;12.87;86.52
36834;BME280;48003;52.084;5.224;2024-03-22T07:32:25;101783.0;;;13.01;86.34
36834;BME280;48003;52.084;5.224;2024-03-22T07:34:02;101778.0;;;13.09;85.95
36834;BME280;48003;52.084;5.224;2024-03-22T07:35:38;101787.0;;;13.09;85.48
36834;BME280;48003;52.084;5.224;2024-03-22T07:38:50;101789.0;;;12.74;87.36
36834;BME280;48003;52.084;5.224;2024-03-22T07:40:26;101797.0;;;12.67;87.84
36834;BME280;48003;52.084;5.224;2024-03-22T07:42:02;101791.0;;;12.93;86.62
36834;BME280;48003;52.084;5.224;2024-03-22T07:45:14;101778.0;;;12.96;85.65
36834;BME280;48003;52.084;5.224;2024-03-22T07:46:50;101782.0;;;13.1;85.72
36834;BME280;48003;52.084;5.224;2024-03-22T07:48:26;101785.0;;;12.72;87.31
36834;BME280;48003;52.084;5.224;2024-03-22T07:51:39;101778.0;;;12.88;86.46
36834;BME280;48003;52.084;5.224;2024-03-22T07:53:15;101775.0;;;13.07;86.0
36834;BME280;48003;52.084;5.224;2024-03-22T07:54:51;101778.0;;;13.26;84.88
36834;BME280;48003;52.084;5.224;2024-03-22T07:58:03;101786.0;;;13.46;83.9
36834;BME280;48003;52.084;5.224;2024-03-22T07:59:39;101784.0;;;13.45;83.72
36834;BME280;48003;52.084;5.224;2024-03-22T08:01:15;101777.0;;;12.96;86.04
36834;BME280;48003;52.084;5.224;2024-03-22T08:02:51;101776.0;;;13.5;84.12
36834;BME280;48003;52.084;5.224;2024-03-22T08:06:04;101774.0;;;13.01;86.34
36834;BME280;48003;52.084;5.224;2024-03-22T08:07:40;101773.0;;;13.21;85.88
36834;BME280;48003;52.084;5.224;2024-03-22T08:09:16;101772.0;;;13.36;84.89
36834;BME280;48003;52.084;5.224;2024-03-22T08:12:28;101774.0;;;13.19;85.58
36834;BME280;48003;52.084;5.224;2024-03-22T08:14:04;101778.0;;;12.82;87.95
36834;BME280;48003;52.084;5.224;2024-03-22T08:15:41;101775.0;;;13.03;87.48
36834;BME280;48003;52.084;5.224;2024-03-22T08:18:53;101770.0;;;13.03;88.07
36834;BME280;48003;52.084;5.224;2024-03-22T08:20:30;101773.0;;;13.05;88.49
36834;BME280;48003;52.084;5.224;2024-03-22T08:22:06;101776.0;;;13.04;89.2
36834;BME280;48003;52.084;5.224;2024-03-22T08:25:18;101778.0;;;13.04;89.72
36834;BME280;48003;52.084;5.224;2024-03-22T08:26:54;101780.0;;;13.15;89.27
36834;BME280;48003;52.084;5.224;2024-03-22T08:28:30;101778.0;;;13.05;90.19
36834;BME280;48003;52.084;5.224;2024-03-22T08:30:07;101778.0;;;12.96;92.16
36834;BME280;48003;52.084;5.224;2024-03-22T08:33:19;101775.0;;;13.19;91.37
36834;BME280;48003;52.084;5.224;2024-03-22T08:34:56;101781.0;;;12.9;93.73
36834;BME280;48003;52.084;5.224;2024-03-22T08:36:32;101773.0;;;13.34;91.33
36834;BME280;48003;52.084;5.224;2024-03-22T08:39:44;101775.0;;;12.99;92.7
36834;BME280;48003;52.084;5.224;2024-03-22T08:41:20;101775.0;;;12.92;93.39
36834;BME280;48003;52.084;5.224;2024-03-22T08:42:56;101771.0;;;13.31;91.5
36834;BME280;48003;52.084;5.224;2024-03-22T08:46:08;101776.0;;;12.8;94.71
36834;BME280;48003;52.084;5.224;2024-03-22T08:47:44;101762.0;;;12.88;94.33
36834;BME280;48003;52.084;5.224;2024-03-22T08:49:20;101765.0;;;12.81;94.8
36834;BME280;48003;52.084;5.224;2024-03-22T08:50:57;101769.0;;;12.57;97.18
36834;BME280;48003;52.084;5.224;2024-03-22T08:54:09;101768.0;;;13.06;94.74
36834;BME280;48003;52.084;5.224;2024-03-22T08:55:45;101763.0;;;13.07;94.53
36834;BME280;48003;52.084;5.224;2024-03-22T08:57:22;101762.0;;;13.15;93.98
36834;BME280;48003;52.084;5.224;2024-03-22T09:00:34;101765.0;;;12.68;96.87
36834;BME280;48003;52.084;5.224;2024-03-22T09:02:10;101758.0;;;13.06;95.39
36834;BME280;48003;52.084;5.224;2024-03-22T09:03:46;101757.0;;;13.11;95.0
36834;BME280;48003;52.084;5.224;2024-03-22T09:06:59;101760.0;;;13.1;95.34
36834;BME280;48003;52.084;5.224;2024-03-22T09:08:35;101760.0;;;12.75;97.25
36834;BME280;48003;52.084;5.224;2024-03-22T09:10:11;101752.0;;;13.21;94.81
36834;BME280;48003;52.084;5.224;2024-03-22T09:13:24;101755.0;;;13.12;95.63
36834;BME280;48003;52.084;5.224;2024-03-22T09:15:01;101758.0;;;13.25;94.62
36834;BME280;48003;52.084;5.224;2024-03-22T09:16:37;101765.0;;;13.1;95.42
36834;BME280;48003;52.084;5.224;2024-03-22T09:18:13;101760.0;;;12.94;97.89
36834;BME280;48003;52.084;5.224;2024-03-22T09:21:26;101756.0;;;13.23;95.63
36834;BME280;48003;52.084;5.224;2024-03-22T09:23:02;101756.0;;;13.23;96.15
36834;BME280;48003;52.084;5.224;2024-03-22T09:24:39;101759.0;;;13.17;96.01
36834;BME280;48003;52.084;5.224;2024-03-22T09:27:52;101758.0;;;12.75;98.13
36834;BME280;48003;52.084;5.224;2024-03-22T09:29:28;101755.0;;;12.94;98.32
36834;BME280;48003;52.084;5.224;2024-03-22T09:31:04;101756.0;;;12.92;97.56
36834;BME280;48003;52.084;5.224;2024-03-22T09:34:18;101752.0;;;13.15;97.37
36834;BME280;48003;52.084;5.224;2024-03-22T09:35:54;101752.0;;;13.02;98.72
36834;BME280;48003;52.084;5.224;2024-03-22T09:37:30;101749.0;;;12.88;98.91
36834;BME280;48003;52.084;5.224;2024-03-22T09:39:09;101755.0;;;13.2;97.29
36834;BME280;48003;52.084;5.224;2024-03-22T09:42:23;101755.0;;;12.96;97.88
36834;BME280;48003;52.084;5.224;2024-03-22T09:43:59;101752.0;;;12.76;100.0
36834;BME280;48003;52.084;5.224;2024-03-22T09:45:39;101753.0;;;13.05;98.91
36834;BME280;48003;52.084;5.224;2024-03-22T09:48:54;101744.0;;;13.0;98.16
36834;BME280;48003;52.084;5.224;2024-03-22T09:50:30;101748.0;;;13.14;98.57
36834;BME280;48003;52.084;5.224;2024-03-22T09:52:06;101748.0;;;12.95;99.94
36834;BME280;48003;52.084;5.224;2024-03-22T09:53:44;101748.0;;;13.13;99.07
36834;BME280;48003;52.084;5.224;2024-03-22T09:56:59;101749.0;;;13.03;98.73
36834;BME280;48003;52.084;5.224;2024-03-22T09:58:37;101753.0;;;12.99;99.5
36834;BME280;48003;52.084;5.224;2024-03-22T10:00:15;101752.0;;;12.51;100.0
36834;BME280;48003;52.084;5.224;2024-03-22T10:03:29;101742.0;;;12.9;100.0
36834;BME280;48003;52.084;5.224;2024-03-22T10:05:06;101740.0;;;12.78;100.0
36834;BME280;48003;52.084;5.224;2024-03-22T10:06:42;101738.0;;;13.03;98.84
36834;BME280;48003;52.084;5.224;2024-03-22T10:08:18;101744.0;;;13.09;99.6
36834;BME280;48003;52.084;5.224;2024-03-22T10:11:34;101738.0;;;12.72;100.0
36834;BME280;48003;52.084;5.224;2024-03-22T10:13:11;101733.0;;;13.01;99.03
36834;BME280;48003;52.084;5.224;2024-03-22T10:14:47;101735.0;;;13.09;97.87
36834;BME280;48003;52.084;5.224;2024-03-22T10:17:59;101731.0;;;12.66;100.0
36834;BME280;48003;52.084;5.224;2024-03-22T10:19:35;101731.0;;;13.02;99.17
36834;BME280;48003;52.084;5.224;2024-03-22T10:21:11;101728.0;;;12.98;98.75
36834;BME280;48003;52.084;5.224;2024-03-22T10:24:25;101733.0;;;12.98;99.44
36834;BME280;48003;52.084;5.224;2024-03-22T10:26:02;101732.0;;;13.13;98.58
36834;BME280;48003;52.084;5.224;2024-03-22T10:27:39;101733.0;;;13.06;98.41
36834;BME280;48003;52.084;5.224;2024-03-22T10:29:16;101732.0;;;13.01;99.92
36834;BME280;48003;52.084;5.224;2024-03-22T10:32:29;101730.0;;;13.17;99.11
36834;BME280;48003;52.084;5.224;2024-03-22T10:34:06;101730.0;;;13.18;99.53
36834;BME280;48003;52.084;5.224;2024-03-22T10:35:44;101728.0;;;13.04;99.33
36834;BME280;48003;52.084;5.224;2024-03-22T10:39:00;101731.0;;;12.99;100.0
36834;BME280;48003;52.084;5.224;2024-03-22T10:40:37;101733.0;;;12.87;100.0
36834;BME280;48003;52.084;5.224;2024-03-22T10:42:12;101730.0;;;13.15;99.66
36834;BME280;48003;52.084;5.224;2024-03-22T10:45:25;101730.0;;;12.86;100.0
36834;BME280;48003;52.084;5.224;2024-03-22T10:47:04;101730.0;;;13.12;100.0
36834;BME280;48003;52.084;5.224;2024-03-22T10:48:42;101739.0;;;13.25;98.74
36834;BME280;48003;52.084;5.224;2024-03-22T10:50:19;101738.0;;;13.29;98.12
36834;BME280;48003;52.084;5.224;2024-03-22T10:53:37;101737.0;;;13.18;98.32
36834;BME280;48003;52.084;5.224;2024-03-22T10:55:19;101733.0;;;13.29;98.17
36834;BME280;48003;52.084;5.224;2024-03-22T10:56:59;101739.0;;;13.23;98.18
36834;BME280;48003;52.084;5.224;2024-03-22T10:58:39;101738.0;;;13.35;98.06
36834;BME280;48003;52.084;5.224;2024-03-22T11:02:03;101734.0;;;13.19;99.35
36834;BME280;48003;52.084;5.224;2024-03-22T11:03:40;101737.0;;;13.08;99.38
36834;BME280;48003;52.084;5.224;2024-03-22T11:05:17;101727.0;;;13.19;98.91
36834;BME280;48003;52.084;5.224;2024-03-22T11:06:56;101726.0;;;13.27;98.5